Time;durP1;ratioP1;P1;durP2;ratioP2;P2;SDS_P1;SDS_P2;PMS_P1;PMS_P2;Temp;Humidity;BMP_temperature;BMP_pressure;BME280_temperature;BME280_humidity;BME280_pressure;Samples;Min_cycle;Max_cycle;Signal;HPM_P1;HPM_P2
2022/04/13 00:00:43;;;;;;;8.57;5.18;;;13.70;96.50;;;;;;5048001;28;20275;-52
2022/04/13 00:03:08;;;;;;;9.43;5.10;;;13.70;96.70;;;;;;5044207;28;20486;-52
2022/04/13 00:05:34;;;;;;;8.48;5.10;;;13.70;97.10;;;;;;5040360;28;20434;-51
2022/04/13 00:08:06;;;;;;;8.48;5.57;;;13.70;97.30;;;;;;5032384;28;20087;-54
2022/04/13 00:10:33;;;;;;;6.38;4.95;;;13.60;97.60;;;;;;5041444;28;20052;-52
2022/04/13 00:12:59;;;;;;;6.25;5.40;;;13.60;97.70;;;;;;5028598;28;20099;-53
2022/04/13 00:15:25;;;;;;;6.33;5.30;;;13.50;97.50;;;;;;5034307;28;20060;-51
2022/04/13 00:17:50;;;;;;;6.45;5.53;;;13.50;96.90;;;;;;5046203;28;20358;-53
2022/04/13 00:20:16;;;;;;;7.07;5.13;;;13.60;96.40;;;;;;5034548;28;20033;-52
2022/04/13 00:22:41;;;;;;;11.52;6.80;;;13.60;96.10;;;;;;5042773;28;20033;-52
2022/04/13 00:25:07;;;;;;;9.53;6.30;;;13.60;96.10;;;;;;5030303;28;20357;-51
2022/04/13 00:27:33;;;;;;;10.23;6.30;;;13.60;95.90;;;;;;5047199;28;20275;-52
2022/04/13 00:29:58;;;;;;;7.13;5.88;;;13.70;95.90;;;;;;5039543;28;20044;-52
2022/04/13 00:32:25;;;;;;;7.60;6.03;;;13.70;95.60;;;;;;5046460;28;20142;-53
2022/04/13 00:34:51;;;;;;;8.00;6.10;;;13.70;95.60;;;;;;5048102;28;20363;-53
2022/04/13 00:37:16;;;;;;;6.95;5.53;;;13.80;95.50;;;;;;5031813;28;20124;-53
2022/04/13 00:39:43;;;;;;;11.10;6.45;;;13.80;95.40;;;;;;5034602;28;20410;-51
2022/04/13 00:42:09;;;;;;;12.00;5.97;;;13.80;95.30;;;;;;5041753;28;20536;-54
2022/04/13 00:44:35;;;;;;;9.18;5.43;;;13.80;95.40;;;;;;5028929;28;20045;-54
2022/04/13 00:47:03;;;;;;;;;;;13.90;95.20;;;;;;5043533;28;20799;-54
2022/04/13 00:49:29;;;;;;;8.75;5.35;;;13.90;95.60;;;;;;5041062;28;19920;-55
2022/04/13 00:51:58;;;;;;;8.13;6.32;;;13.90;95.60;;;;;;5038766;28;20418;-53
2022/04/13 00:54:25;;;;;;;10.57;6.53;;;13.90;95.40;;;;;;5037949;28;20033;-53
2022/04/13 00:56:54;;;;;;;8.65;6.05;;;13.90;95.30;;;;;;5043638;28;20449;-54
2022/04/13 00:59:21;;;;;;;12.40;6.75;;;13.90;95.40;;;;;;5039373;28;20040;-55
2022/04/13 01:01:48;;;;;;;9.13;5.93;;;13.90;95.60;;;;;;5041558;28;20045;-52
2022/04/13 01:04:15;;;;;;;10.23;7.22;;;13.90;95.60;;;;;;5049610;28;20125;-54
2022/04/13 01:06:42;;;;;;;10.88;6.05;;;13.90;95.60;;;;;;5042883;28;20048;-52
2022/04/13 01:09:08;;;;;;;7.55;6.03;;;13.90;95.90;;;;;;5033521;28;20038;-53
2022/04/13 01:11:34;;;;;;;7.72;5.20;;;13.90;95.70;;;;;;5034170;28;20402;-55
2022/04/13 01:13:59;;;;;;;9.00;5.97;;;13.90;95.70;;;;;;5033696;28;20069;-55
2022/04/13 01:16:26;;;;;;;8.88;7.22;;;13.90;95.50;;;;;;5035263;28;20329;-52
2022/04/13 01:18:52;;;;;;;9.50;6.22;;;13.90;95.70;;;;;;5043758;28;20043;-55
2022/04/13 01:21:20;;;;;;;8.23;7.28;;;13.90;95.90;;;;;;5050417;28;20059;-53
2022/04/13 01:23:46;;;;;;;14.65;7.45;;;13.90;95.80;;;;;;5052373;28;20048;-55
2022/04/13 01:26:12;;;;;;;;;;;13.80;95.90;;;;;;5047464;28;20494;-54
2022/04/13 01:28:38;;;;;;;8.35;7.07;;;13.90;95.80;;;;;;5033249;28;20173;-55
2022/04/13 01:31:05;;;;;;;8.02;7.30;;;13.90;95.90;;;;;;5033605;28;20041;-54
2022/04/13 01:33:30;;;;;;;;;;;13.80;95.90;;;;;;5052682;28;20037;-55
2022/04/13 01:36:00;;;;;;;11.57;9.05;;;13.80;96.10;;;;;;5050279;28;20381;-55
2022/04/13 01:38:27;;;;;;;15.80;8.63;;;13.80;96.00;;;;;;5050806;28;20043;-51
2022/04/13 01:40:54;;;;;;;11.55;8.85;;;13.80;96.50;;;;;;5045419;28;20052;-52
2022/04/13 01:43:19;;;;;;;15.32;8.63;;;13.80;96.80;;;;;;5049987;28;20090;-52
2022/04/13 01:45:45;;;;;;;12.07;8.33;;;13.70;96.80;;;;;;5042525;28;20038;-51
2022/04/13 01:48:11;;;;;;;15.65;9.13;;;13.70;96.60;;;;;;5047981;28;20091;-51
2022/04/13 01:50:36;;;;;;;15.33;8.17;;;13.60;96.80;;;;;;5051367;28;20076;-51
2022/04/13 01:53:02;;;;;;;12.02;7.57;;;13.60;96.70;;;;;;5042010;28;20276;-52
2022/04/13 01:55:28;;;;;;;10.20;8.00;;;13.60;96.90;;;;;;5046943;28;20029;-54
2022/04/13 01:57:53;;;;;;;9.52;7.55;;;13.60;96.90;;;;;;5039561;28;20075;-51
2022/04/13 02:00:19;;;;;;;10.30;7.83;;;13.50;96.80;;;;;;5048836;28;20447;-52
2022/04/13 02:02:46;;;;;;;9.10;7.75;;;13.50;97.00;;;;;;5041600;28;20279;-51
2022/04/13 02:05:11;;;;;;;12.52;7.85;;;13.50;97.00;;;;;;5035556;28;20108;-52
2022/04/13 02:07:37;;;;;;;10.13;7.50;;;13.50;97.30;;;;;;5032844;28;20041;-52
2022/04/13 02:10:03;;;;;;;12.63;8.45;;;13.50;97.30;;;;;;5046959;28;20115;-51
2022/04/13 02:12:29;;;;;;;12.02;8.50;;;13.40;97.40;;;;;;5051254;28;20149;-51
2022/04/13 02:14:54;;;;;;;9.13;7.07;;;13.40;97.60;;;;;;5038095;28;20507;-51
2022/04/13 02:17:21;;;;;;;10.85;7.82;;;13.40;97.60;;;;;;5032071;28;20294;-53
2022/04/13 02:19:46;;;;;;;12.43;8.88;;;13.30;97.70;;;;;;5032194;28;20053;-51
2022/04/13 02:22:12;;;;;;;13.57;7.70;;;13.30;97.90;;;;;;5032296;28;20504;-54
2022/04/13 02:24:39;;;;;;;12.80;8.10;;;13.20;97.90;;;;;;5038189;28;20051;-51
2022/04/13 02:27:07;;;;;;;16.30;9.43;;;13.20;98.10;;;;;;5044221;28;20049;-52
2022/04/13 02:29:34;;;;;;;9.07;7.68;;;13.10;98.20;;;;;;5037316;28;20056;-52
2022/04/13 02:32:00;;;;;;;9.23;7.65;;;13.10;98.30;;;;;;5049383;28;20087;-51
2022/04/13 02:34:26;;;;;;;10.35;7.63;;;13.10;98.50;;;;;;5044067;28;20076;-52
2022/04/13 02:36:52;;;;;;;11.33;7.23;;;13.10;98.50;;;;;;5029993;28;20073;-51
2022/04/13 02:39:17;;;;;;;11.47;8.47;;;13.10;98.60;;;;;;5034208;28;20287;-51
2022/04/13 02:41:43;;;;;;;11.63;7.77;;;13.00;98.60;;;;;;5038784;28;20288;-53
2022/04/13 02:44:08;;;;;;;11.80;8.80;;;13.00;98.60;;;;;;5034432;28;20041;-51
2022/04/13 02:46:34;;;;;;;9.07;6.72;;;13.00;98.90;;;;;;5050327;28;20531;-55
2022/04/13 02:48:59;;;;;;;9.20;6.77;;;13.00;98.70;;;;;;5048852;28;20045;-51
2022/04/13 02:51:25;;;;;;;14.70;8.33;;;12.90;98.70;;;;;;5034221;28;20337;-51
2022/04/13 02:53:50;;;;;;;9.80;8.47;;;12.90;98.90;;;;;;5050693;28;20452;-52
2022/04/13 02:56:17;;;;;;;7.87;7.17;;;12.80;98.90;;;;;;5030829;28;20280;-52
2022/04/13 02:58:42;;;;;;;9.23;7.18;;;12.80;98.90;;;;;;5047313;28;20119;-55
2022/04/13 03:01:08;;;;;;;11.27;7.93;;;12.80;99.10;;;;;;5032902;28;20041;-50
2022/04/13 03:03:34;;;;;;;10.18;7.65;;;12.70;99.10;;;;;;5042656;28;20033;-52
2022/04/13 03:06:00;;;;;;;13.20;8.45;;;12.70;99.50;;;;;;5032617;28;20048;-54
2022/04/13 03:08:25;;;;;;;10.20;8.60;;;12.60;99.30;;;;;;5048089;28;20351;-52
2022/04/13 03:10:51;;;;;;;15.27;9.15;;;12.60;99.40;;;;;;5037262;28;20518;-54
2022/04/13 03:13:17;;;;;;;13.68;8.88;;;12.60;99.60;;;;;;5040325;28;20108;-54
2022/04/13 03:15:42;;;;;;;10.68;8.90;;;12.60;99.40;;;;;;5038193;28;20038;-52
2022/04/13 03:18:08;;;;;;;14.40;9.38;;;12.50;99.40;;;;;;5029984;28;20045;-55
2022/04/13 03:20:34;;;;;;;11.38;9.18;;;12.50;99.40;;;;;;5040949;28;20056;-53
2022/04/13 03:23:01;;;;;;;18.52;10.38;;;12.50;99.50;;;;;;5045882;28;20036;-52
2022/04/13 03:25:27;;;;;;;14.20;9.68;;;12.40;99.60;;;;;;5037414;28;20059;-51
2022/04/13 03:27:53;;;;;;;12.57;9.15;;;12.40;99.60;;;;;;5040340;28;20120;-55
2022/04/13 03:30:18;;;;;;;12.32;9.10;;;12.40;99.80;;;;;;5037410;28;20486;-54
2022/04/13 03:32:44;;;;;;;14.80;9.70;;;12.40;99.80;;;;;;5029504;28;20048;-54
2022/04/13 03:35:11;;;;;;;11.82;9.30;;;12.40;99.80;;;;;;5034563;28;20131;-53
2022/04/13 03:37:38;;;;;;;13.73;9.25;;;12.30;99.90;;;;;;5049759;28;20037;-54
2022/04/13 03:40:04;;;;;;;16.63;9.00;;;12.30;99.90;;;;;;5043969;28;20036;-54
2022/04/13 03:42:34;;;;;;;13.95;10.05;;;12.30;99.90;;;;;;5030050;28;20042;-55
2022/04/13 03:45:11;;;;;;;14.35;9.35;;;12.20;99.90;;;;;;5041845;28;20560;-54
2022/04/13 03:47:40;;;;;;;;;;;12.20;99.90;;;;;;5037324;28;20044;-55
2022/04/13 03:50:08;;;;;;;11.75;8.93;;;12.20;99.90;;;;;;5043665;28;19921;-54
2022/04/13 03:52:35;;;;;;;10.50;7.03;;;12.20;99.90;;;;;;5049532;28;20530;-52
2022/04/13 03:55:06;;;;;;;10.93;8.15;;;12.10;99.90;;;;;;5039896;28;20544;-52
2022/04/13 03:57:32;;;;;;;14.10;9.60;;;12.00;99.90;;;;;;5029645;28;20037;-50
2022/04/13 03:59:57;;;;;;;10.40;8.25;;;12.00;99.90;;;;;;5031044;28;20037;-52
2022/04/13 04:02:23;;;;;;;11.02;8.32;;;12.00;99.90;;;;;;5032801;28;20531;-51
2022/04/13 04:04:49;;;;;;;13.90;9.32;;;11.90;99.90;;;;;;5043168;28;20040;-54
2022/04/13 04:07:15;;;;;;;9.95;8.13;;;11.90;99.90;;;;;;5031254;28;20124;-53
2022/04/13 04:09:41;;;;;;;16.25;9.73;;;11.90;99.90;;;;;;5030789;28;20116;-52
2022/04/13 04:12:07;;;;;;;11.67;7.87;;;11.90;99.90;;;;;;5030726;28;20434;-51
2022/04/13 04:14:32;;;;;;;13.00;7.90;;;11.90;99.90;;;;;;5029349;28;20708;-52
2022/04/13 04:16:58;;;;;;;11.48;8.93;;;11.90;99.90;;;;;;5030161;28;20109;-51
2022/04/13 04:19:23;;;;;;;11.77;8.33;;;11.90;99.90;;;;;;5029210;28;20079;-53
2022/04/13 04:21:49;;;;;;;11.53;8.90;;;11.90;99.90;;;;;;5029579;28;20077;-50
2022/04/13 04:24:15;;;;;;;15.55;8.95;;;11.90;99.90;;;;;;5030017;28;20131;-52
2022/04/13 04:26:40;;;;;;;14.50;9.50;;;11.80;99.90;;;;;;5029211;28;20501;-52
2022/04/13 04:29:06;;;;;;;12.70;10.20;;;11.80;99.90;;;;;;5043190;28;20037;-53
2022/04/13 04:31:50;;;;;;;20.63;11.52;;;11.80;99.90;;;;;;5040069;28;20287;-53
2022/04/13 04:34:20;;;;;;;21.95;12.30;;;11.80;99.90;;;;;;5051102;28;20090;-52
2022/04/13 04:36:46;;;;;;;15.60;10.70;;;11.80;99.90;;;;;;5042265;28;20049;-53
2022/04/13 04:39:12;;;;;;;21.52;12.18;;;11.80;99.90;;;;;;5051990;28;20045;-51
2022/04/13 04:41:39;;;;;;;16.35;10.90;;;11.80;99.90;;;;;;5038722;28;20689;-50
2022/04/13 04:44:05;;;;;;;13.95;9.40;;;11.80;99.90;;;;;;5043197;28;20111;-51
2022/04/13 04:46:30;;;;;;;14.65;10.00;;;11.80;99.90;;;;;;5032473;28;20450;-51
2022/04/13 04:48:56;;;;;;;19.30;11.53;;;11.80;99.90;;;;;;5041068;28;20041;-53
2022/04/13 04:51:22;;;;;;;16.75;10.52;;;11.70;99.90;;;;;;5053465;28;20041;-50
2022/04/13 04:53:47;;;;;;;20.00;11.07;;;11.70;99.90;;;;;;5043457;28;20029;-51
2022/04/13 04:56:14;;;;;;;18.10;11.40;;;11.70;99.90;;;;;;5052209;28;20325;-52
2022/04/13 04:58:40;;;;;;;16.95;10.38;;;11.70;99.90;;;;;;5048530;28;20068;-50
2022/04/13 05:01:05;;;;;;;23.23;11.00;;;11.70;99.90;;;;;;5043694;28;20076;-51
2022/04/13 05:03:32;;;;;;;13.82;10.50;;;11.70;99.90;;;;;;5049780;28;20041;-51
2022/04/13 05:05:57;;;;;;;13.60;10.73;;;11.70;99.90;;;;;;5032976;28;20040;-50
2022/04/13 05:08:23;;;;;;;17.73;11.55;;;11.60;99.90;;;;;;5035972;28;20120;-51
2022/04/13 05:10:51;;;;;;;15.80;11.65;;;11.60;99.90;;;;;;5033747;28;20076;-53
2022/04/13 05:13:20;;;;;;;13.65;10.07;;;11.60;99.90;;;;;;5032521;28;20087;-50
2022/04/13 05:15:46;;;;;;;19.92;11.40;;;11.50;99.90;;;;;;5049760;28;20559;-53
2022/04/13 05:18:12;;;;;;;16.48;11.20;;;11.60;99.90;;;;;;5043864;28;20049;-54
2022/04/13 05:20:39;;;;;;;;;;;11.60;99.90;;;;;;5050581;28;20068;-52
2022/04/13 05:23:04;;;;;;;21.83;11.17;;;11.60;99.90;;;;;;5033258;28;19963;-50
2022/04/13 05:25:30;;;;;;;11.63;10.47;;;11.60;99.90;;;;;;5045778;28;20049;-54
2022/04/13 05:27:55;;;;;;;11.53;10.23;;;11.60;99.90;;;;;;5044848;28;20037;-51
2022/04/13 05:30:21;;;;;;;15.55;10.93;;;11.60;99.90;;;;;;5038204;28;20048;-52
2022/04/13 05:32:58;;;;;;;15.43;10.63;;;11.70;99.90;;;;;;5043303;28;20497;-53
2022/04/13 05:35:27;;;;;;;21.48;11.32;;;11.70;99.90;;;;;;5038273;28;20080;-51
2022/04/13 05:37:53;;;;;;;15.70;10.27;;;11.70;99.90;;;;;;5049827;28;20065;-51
2022/04/13 05:40:19;;;;;;;;;;;11.80;99.90;;;;;;5038963;28;20087;-53
2022/04/13 05:42:45;;;;;;;16.90;11.63;;;11.80;99.90;;;;;;5042428;28;19929;-51
2022/04/13 05:45:11;;;;;;;22.52;10.85;;;11.80;99.90;;;;;;5039266;28;20427;-50
2022/04/13 05:47:42;;;;;;;17.50;11.60;;;11.80;99.90;;;;;;5050586;28;20033;-52
2022/04/13 05:50:08;;;;;;;15.45;11.35;;;11.90;99.90;;;;;;5048040;28;20052;-53
2022/04/13 05:52:34;;;;;;;15.85;10.73;;;11.90;99.90;;;;;;5040816;28;20108;-55
2022/04/13 05:54:59;;;;;;;14.63;11.35;;;12.00;99.90;;;;;;5033043;28;20379;-55
2022/04/13 05:57:25;;;;;;;14.53;11.03;;;12.10;99.90;;;;;;5037716;28;20179;-54
2022/04/13 05:59:51;;;;;;;18.33;11.57;;;12.10;99.90;;;;;;5051005;28;20079;-54
2022/04/13 06:02:17;;;;;;;;;;;12.10;99.90;;;;;;5032933;28;20294;-52
2022/04/13 06:04:42;;;;;;;23.70;11.88;;;12.20;99.90;;;;;;5048489;28;20366;-54
2022/04/13 06:07:08;;;;;;;20.70;12.27;;;12.20;99.90;;;;;;5040702;28;20037;-52
2022/04/13 06:09:34;;;;;;;21.27;12.20;;;12.30;99.90;;;;;;5038094;28;20060;-51
2022/04/13 06:11:59;;;;;;;16.25;11.15;;;12.30;99.90;;;;;;5051679;28;20037;-51
2022/04/13 06:14:25;;;;;;;18.27;11.30;;;12.40;99.90;;;;;;5042161;28;20409;-55
2022/04/13 06:16:50;;;;;;;18.58;11.27;;;12.40;99.90;;;;;;5032723;28;20328;-52
2022/04/13 06:19:16;;;;;;;14.30;9.90;;;12.50;99.90;;;;;;5033028;28;20044;-51
2022/04/13 06:21:42;;;;;;;12.68;10.40;;;12.50;99.90;;;;;;5039681;28;20044;-51
2022/04/13 06:24:08;;;;;;;16.98;11.05;;;12.60;99.90;;;;;;5049701;28;20037;-51
2022/04/13 06:26:33;;;;;;;17.67;11.35;;;12.60;99.90;;;;;;5047722;28;20401;-53
2022/04/13 06:28:59;;;;;;;13.23;9.47;;;12.60;99.90;;;;;;5035724;28;20036;-52
2022/04/13 06:31:25;;;;;;;14.52;10.55;;;12.70;99.90;;;;;;5042190;28;20033;-51
2022/04/13 06:33:52;;;;;;;11.03;8.73;;;12.80;99.90;;;;;;5039849;28;20560;-50
2022/04/13 06:36:18;;;;;;;16.73;11.90;;;12.80;99.90;;;;;;5041315;28;20334;-54
2022/04/13 06:38:43;;;;;;;17.95;10.98;;;12.90;99.90;;;;;;5038867;28;20047;-53
2022/04/13 06:41:13;;;;;;;16.38;11.20;;;13.00;99.90;;;;;;5038495;28;20057;-50
2022/04/13 06:43:39;;;;;;;15.95;11.07;;;13.10;99.90;;;;;;5039259;28;20115;-52
2022/04/13 06:46:05;;;;;;;;;;;13.20;99.90;;;;;;5049728;28;20044;-53
2022/04/13 06:48:30;;;;;;;19.45;12.43;;;13.30;99.90;;;;;;5047047;28;19936;-52
2022/04/13 06:50:56;;;;;;;20.58;13.13;;;13.50;99.90;;;;;;5037213;28;20108;-51
2022/04/13 06:53:21;;;;;;;18.53;12.10;;;13.50;99.90;;;;;;5040713;28;20043;-51
2022/04/13 06:55:48;;;;;;;17.73;12.23;;;13.60;99.90;;;;;;5038560;28;20291;-51
2022/04/13 06:58:16;;;;;;;15.93;11.82;;;13.70;99.90;;;;;;5030705;28;20761;-54
2022/04/13 07:00:43;;;;;;;23.50;11.68;;;13.80;99.90;;;;;;5034223;28;20037;-53
2022/04/13 07:03:09;;;;;;;15.30;11.65;;;14.00;99.90;;;;;;5034775;28;20037;-49
2022/04/13 07:05:35;;;;;;;18.05;10.80;;;14.10;99.90;;;;;;5042365;28;20086;-52
2022/04/13 07:08:02;;;;;;;16.83;11.10;;;14.20;99.90;;;;;;5047143;28;20045;-52
2022/04/13 07:10:29;;;;;;;25.33;11.93;;;14.20;99.90;;;;;;5042506;28;20078;-50
2022/04/13 07:12:54;;;;;;;;;;;14.40;99.90;;;;;;5040698;28;20040;-52
2022/04/13 07:15:20;;;;;;;16.38;8.45;;;14.40;99.90;;;;;;5033019;28;19917;-55
2022/04/13 07:17:46;;;;;;;14.98;7.78;;;14.50;99.90;;;;;;5035927;28;20037;-55
2022/04/13 07:20:13;;;;;;;15.20;8.77;;;14.60;99.90;;;;;;5038957;28;20111;-54
2022/04/13 07:22:53;;;;;;;11.90;8.25;;;14.60;99.90;;;;;;5037212;28;20045;-54
2022/04/13 07:25:19;;;;;;;11.77;8.65;;;14.70;99.90;;;;;;5043702;28;20484;-55
2022/04/13 07:27:45;;;;;;;;;;;14.80;99.90;;;;;;5044793;28;20037;-51
2022/04/13 07:30:13;;;;;;;13.00;8.52;;;14.90;99.90;;;;;;5034028;28;20531;-50
2022/04/13 07:32:38;;;;;;;12.55;6.72;;;14.90;99.90;;;;;;5049232;28;20033;-52
2022/04/13 07:35:04;;;;;;;11.70;7.10;;;15.00;99.90;;;;;;5049663;28;20517;-53
2022/04/13 07:37:31;;;;;;;16.98;7.85;;;15.20;99.90;;;;;;5049376;28;20045;-53
2022/04/13 07:39:57;;;;;;;14.77;6.85;;;15.20;99.90;;;;;;5040900;28;20049;-55
2022/04/13 07:42:24;;;;;;;13.63;7.45;;;15.30;99.90;;;;;;5018305;28;20044;-54
2022/04/13 07:44:50;;;;;;;10.70;7.22;;;15.40;99.90;;;;;;5035578;28;20045;-54
2022/04/13 07:47:18;;;;;;;17.83;7.88;;;15.40;99.90;;;;;;5035188;28;20406;-55
2022/04/13 07:49:44;;;;;;;14.05;7.00;;;15.40;99.90;;;;;;5028844;28;20057;-55
2022/04/13 07:52:10;;;;;;;9.73;6.30;;;15.40;99.90;;;;;;5036267;28;20037;-52
2022/04/13 07:54:35;;;;;;;14.05;6.65;;;15.50;99.90;;;;;;5012220;28;20423;-53
2022/04/13 07:57:02;;;;;;;8.45;5.05;;;15.50;99.90;;;;;;5038379;28;20684;-51
2022/04/13 07:59:27;;;;;;;6.95;4.97;;;15.60;99.90;;;;;;5038535;28;20064;-49
2022/04/13 08:01:54;;;;;;;11.88;5.57;;;15.60;99.90;;;;;;5032150;28;20114;-49
2022/04/13 08:04:19;;;;;;;;;;;15.60;99.90;;;;;;5037656;28;20095;-47
2022/04/13 08:06:45;;;;;;;13.45;5.88;;;15.60;99.90;;;;;;5039644;28;19932;-52
2022/04/13 08:09:11;;;;;;;9.93;5.00;;;15.60;99.90;;;;;;5040200;28;20041;-49
2022/04/13 08:11:36;;;;;;;9.43;5.68;;;15.70;99.90;;;;;;5030090;28;20180;-50
2022/04/13 08:14:02;;;;;;;9.60;5.82;;;15.80;99.90;;;;;;5037168;28;20033;-47
2022/04/13 08:16:27;;;;;;;11.48;5.07;;;15.80;99.90;;;;;;5041568;28;20025;-47
2022/04/13 08:18:53;;;;;;;8.45;5.60;;;15.80;99.90;;;;;;5031543;28;20095;-47
2022/04/13 08:21:18;;;;;;;9.60;5.97;;;15.90;99.90;;;;;;5029295;28;20595;-48
2022/04/13 08:23:44;;;;;;;16.25;6.25;;;15.90;99.90;;;;;;5028775;28;20569;-47
2022/04/13 08:26:09;;;;;;;7.68;6.13;;;15.90;99.90;;;;;;5030025;28;20044;-47
2022/04/13 08:28:35;;;;;;;12.50;6.25;;;15.90;99.90;;;;;;5029096;28;20047;-48
2022/04/13 08:31:04;;;;;;;11.23;6.00;;;15.80;99.90;;;;;;5035848;28;20033;-48
2022/04/13 08:33:30;;;;;;;12.15;7.47;;;15.80;99.90;;;;;;5028748;28;20368;-49
2022/04/13 08:35:56;;;;;;;11.15;6.30;;;15.80;99.90;;;;;;5024922;28;20406;-48
2022/04/13 08:38:22;;;;;;;11.98;6.80;;;15.80;99.90;;;;;;5034727;28;20094;-47
2022/04/13 08:40:59;;;;;;;12.38;6.90;;;15.80;99.90;;;;;;5030335;28;20501;-48
2022/04/13 08:43:39;;;;;;;11.80;6.47;;;15.80;99.90;;;;;;5032397;28;20044;-48
2022/04/13 08:46:07;;;;;;;15.30;7.63;;;15.80;99.90;;;;;;5028633;28;20052;-48
2022/04/13 08:48:37;;;;;;;10.90;6.03;;;15.90;99.90;;;;;;5042886;28;20572;-48
2022/04/13 08:51:05;;;;;;;9.88;5.85;;;15.90;99.90;;;;;;5031668;28;20037;-47
2022/04/13 08:53:33;;;;;;;10.48;6.70;;;16.00;99.90;;;;;;5038043;28;20412;-48
2022/04/13 08:56:02;;;;;;;9.68;7.03;;;16.00;99.90;;;;;;5023742;28;20037;-47
2022/04/13 08:58:33;;;;;;;10.60;6.20;;;16.00;99.90;;;;;;5041537;28;20044;-48
2022/04/13 09:01:05;;;;;;;12.85;7.40;;;16.00;99.90;;;;;;5031312;28;20030;-48
2022/04/13 09:03:44;;;;;;;14.20;8.02;;;16.10;99.90;;;;;;5024881;28;20026;-47
2022/04/13 09:06:10;;;;;;;15.65;6.78;;;16.10;99.90;;;;;;5025834;28;20038;-48
2022/04/13 09:08:48;;;;;;;19.55;6.93;;;16.10;99.90;;;;;;5025182;28;20395;-48
2022/04/13 09:11:13;;;;;;;13.60;7.00;;;16.10;99.90;;;;;;5024017;28;20046;-49
2022/04/13 09:13:40;;;;;;;11.02;7.15;;;16.10;99.90;;;;;;5025140;28;20041;-49
2022/04/13 09:16:05;;;;;;;;;;;16.10;99.90;;;;;;5025828;28;20043;-48
2022/04/13 09:18:31;;;;;;;14.25;7.53;;;16.20;99.90;;;;;;5040852;28;20303;-48
2022/04/13 09:20:58;;;;;;;16.45;7.75;;;16.30;99.90;;;;;;5046080;28;20037;-49
2022/04/13 09:23:25;;;;;;;16.25;7.82;;;16.30;99.90;;;;;;5038666;28;20036;-48
2022/04/13 09:25:54;;;;;;;13.15;7.88;;;16.30;99.90;;;;;;5040520;28;20132;-48
2022/04/13 09:28:20;;;;;;;9.70;7.00;;;16.40;99.90;;;;;;5033841;28;20042;-48
2022/04/13 09:30:46;;;;;;;13.00;7.90;;;16.40;99.90;;;;;;5040192;28;20430;-48
2022/04/13 09:33:11;;;;;;;10.95;7.10;;;16.50;99.90;;;;;;5050312;28;20048;-47
2022/04/13 09:35:37;;;;;;;10.27;6.45;;;16.50;99.90;;;;;;5033249;28;20043;-48
2022/04/13 09:38:07;;;;;;;13.60;7.40;;;16.60;99.90;;;;;;5036436;28;20037;-47
2022/04/13 09:40:37;;;;;;;15.05;6.80;;;16.60;99.90;;;;;;5035458;28;20114;-48
2022/04/13 09:43:11;;;;;;;16.33;7.40;;;16.70;99.90;;;;;;5030812;28;20402;-49
2022/04/13 09:45:45;;;;;;;14.18;5.80;;;16.70;99.90;;;;;;5034028;28;20478;-48
2022/04/13 09:48:13;;;;;;;9.18;6.70;;;16.70;99.90;;;;;;5036861;28;20118;-48
2022/04/13 09:50:39;;;;;;;15.05;7.95;;;16.70;99.90;;;;;;5034678;28;20049;-48
2022/04/13 09:53:07;;;;;;;12.68;7.20;;;16.70;99.90;;;;;;5035619;28;20112;-48
2022/04/13 09:55:43;;;;;;;15.93;7.65;;;16.70;99.90;;;;;;5038534;28;20442;-50
2022/04/13 09:58:11;;;;;;;;;;;16.80;99.90;;;;;;5033611;28;20033;-48
2022/04/13 10:00:37;;;;;;;;;;;16.90;99.90;;;;;;5035877;28;20421;-48
2022/04/13 10:03:22;;;;;;;10.07;7.35;;;17.00;99.90;;;;;;5034847;28;20382;-47
2022/04/13 10:05:56;;;;;;;7.88;6.68;;;17.10;99.90;;;;;;5035197;28;20101;-47
2022/04/13 10:08:24;;;;;;;8.30;5.68;;;17.20;99.90;;;;;;5032119;28;20037;-48
2022/04/13 10:10:53;;;;;;;12.57;6.63;;;17.30;99.90;;;;;;5034490;28;20052;-48
2022/04/13 10:13:40;;;;;;;9.32;6.00;;;17.30;99.90;;;;;;5048228;28;20394;-47
2022/04/13 10:16:11;;;;;;;10.60;6.07;;;17.40;99.90;;;;;;5034745;28;20087;-47
2022/04/13 10:18:56;;;;;;;9.30;5.50;;;17.50;99.90;;;;;;5038452;28;20120;-48
2022/04/13 10:21:45;;;;;;;9.90;5.32;;;17.60;99.90;;;;;;5037275;28;20099;-47
2022/04/13 10:24:21;;;;;;;9.65;5.45;;;17.70;99.90;;;;;;5035861;28;20042;-48
2022/04/13 10:27:17;;;;;;;6.10;4.78;;;17.70;99.90;;;;;;5036640;28;20142;-48
2022/04/13 10:29:48;;;;;;;8.27;6.20;;;17.70;99.90;;;;;;5036178;28;20094;-48
2022/04/13 10:32:24;;;;;;;6.85;6.15;;;17.60;99.90;;;;;;5032051;28;20033;-47
2022/04/13 10:34:51;;;;;;;8.60;6.95;;;17.60;99.90;;;;;;5033344;28;20564;-49
2022/04/13 10:37:19;;;;;;;10.88;7.85;;;17.60;99.90;;;;;;5032188;28;20065;-50
2022/04/13 10:39:46;;;;;;;10.32;6.45;;;17.60;99.90;;;;;;5036087;28;20045;-48
2022/04/13 10:42:17;;;;;;;13.65;8.23;;;17.60;99.90;;;;;;5032981;28;20040;-48
2022/04/13 10:44:46;;;;;;;8.95;7.95;;;17.60;99.90;;;;;;5030611;28;20059;-48
2022/04/13 10:47:16;;;;;;;12.25;7.82;;;17.60;99.90;;;;;;5034196;28;20045;-48
2022/04/13 10:49:56;;;;;;;12.55;8.45;;;17.60;99.90;;;;;;5029566;28;20052;-47
2022/04/13 10:52:28;;;;;;;13.52;7.75;;;17.70;99.90;;;;;;5033808;28;20037;-47
2022/04/13 10:55:01;;;;;;;12.45;8.88;;;17.80;99.90;;;;;;5034797;28;20090;-47
2022/04/13 10:57:35;;;;;;;10.82;7.72;;;17.80;99.90;;;;;;5031920;28;20045;-47
2022/04/13 11:00:04;;;;;;;14.50;7.10;;;17.90;99.90;;;;;;5033493;28;20045;-48
2022/04/13 11:02:38;;;;;;;9.48;6.68;;;17.90;99.90;;;;;;5032975;28;20037;-47
2022/04/13 11:05:03;;;;;;;14.25;6.90;;;17.90;99.90;;;;;;5036146;28;20112;-47
2022/04/13 11:07:30;;;;;;;7.90;6.00;;;17.90;99.90;;;;;;5034266;28;20132;-47
2022/04/13 11:09:57;;;;;;;8.55;6.40;;;17.90;99.90;;;;;;5043622;28;20032;-48
2022/04/13 11:12:25;;;;;;;11.48;6.13;;;17.80;99.90;;;;;;5034714;28;20084;-48
2022/04/13 11:14:55;;;;;;;9.80;5.97;;;17.80;99.90;;;;;;5032654;28;20123;-47
2022/04/13 11:17:21;;;;;;;10.43;5.07;;;17.70;99.90;;;;;;5035808;28;20788;-48
2022/04/13 11:19:48;;;;;;;10.82;6.63;;;17.70;99.90;;;;;;5033242;28;20151;-48
2022/04/13 11:22:17;;;;;;;10.88;6.03;;;17.70;99.90;;;;;;5033954;28;20125;-47
2022/04/13 11:24:45;;;;;;;7.53;4.90;;;17.70;99.90;;;;;;5030543;28;20487;-48
2022/04/13 11:27:11;;;;;;;6.55;5.45;;;17.70;99.50;;;;;;5034973;28;20040;-48
2022/04/13 11:29:45;;;;;;;14.25;5.75;;;17.70;99.50;;;;;;5029280;28;20065;-48
2022/04/13 11:32:15;;;;;;;8.00;5.22;;;17.60;99.90;;;;;;5034311;28;20044;-48
2022/04/13 11:34:48;;;;;;;9.65;4.90;;;17.60;99.70;;;;;;5035301;28;20033;-48
2022/04/13 11:37:16;;;;;;;5.75;4.55;;;17.50;99.80;;;;;;5034401;28;20029;-48
2022/04/13 11:39:59;;;;;;;7.38;5.32;;;17.50;99.60;;;;;;5032545;28;20037;-47
2022/04/13 11:42:34;;;;;;;10.77;5.05;;;17.50;99.90;;;;;;5026770;28;20051;-48
2022/04/13 11:45:11;;;;;;;8.65;5.75;;;17.40;99.90;;;;;;5028745;28;20033;-47
2022/04/13 11:47:44;;;;;;;7.45;5.57;;;17.40;99.90;;;;;;5029503;28;20470;-48
2022/04/13 11:50:13;;;;;;;9.65;6.05;;;17.30;99.90;;;;;;5028791;28;20048;-48
2022/04/13 11:52:51;;;;;;;12.77;6.43;;;17.20;99.90;;;;;;5027918;28;20441;-47
2022/04/13 11:55:39;;;;;;;11.75;7.55;;;17.20;99.90;;;;;;5027219;28;20943;-49
2022/04/13 11:58:08;;;;;;;9.40;5.93;;;17.20;99.90;;;;;;5021252;28;20053;-48
2022/04/13 12:00:52;;;;;;;6.20;5.47;;;17.20;99.90;;;;;;5025455;28;20051;-47
2022/04/13 12:03:31;;;;;;;6.82;4.13;;;17.20;99.90;;;;;;5025224;28;20041;-48
2022/04/13 12:06:02;;;;;;;4.18;3.78;;;17.20;99.90;;;;;;5028662;28;20571;-48
2022/04/13 12:08:30;;;;;;;4.88;4.03;;;17.20;99.90;;;;;;5042253;28;20102;-47
2022/04/13 12:11:01;;;;;;;7.10;4.30;;;17.20;99.90;;;;;;5032274;28;20037;-47
2022/04/13 12:13:29;;;;;;;6.30;5.03;;;17.20;99.90;;;;;;5030582;28;20112;-48
2022/04/13 12:15:56;;;;;;;8.80;6.82;;;17.20;99.90;;;;;;5033317;28;20041;-47
2022/04/13 12:18:24;;;;;;;6.57;4.80;;;17.20;99.90;;;;;;5031525;28;20033;-50
2022/04/13 12:20:50;;;;;;;8.77;5.70;;;17.30;99.90;;;;;;5031582;28;20056;-49
2022/04/13 12:23:27;;;;;;;8.07;4.75;;;17.40;99.90;;;;;;5031394;28;20037;-48
2022/04/13 12:25:54;;;;;;;4.57;3.35;;;17.30;99.90;;;;;;5030622;28;20095;-49
2022/04/13 12:28:22;;;;;;;3.13;2.83;;;17.40;99.90;;;;;;5036487;28;20119;-48
2022/04/13 12:31:06;;;;;;;6.10;3.00;;;17.40;99.90;;;;;;5032936;28;20445;-48
2022/04/13 12:33:32;;;;;;;5.93;3.15;;;17.40;99.90;;;;;;5035163;28;20045;-47
2022/04/13 12:36:03;;;;;;;4.18;2.30;;;17.40;99.50;;;;;;5034257;28;20408;-49
2022/04/13 12:38:33;;;;;;;4.70;2.17;;;17.30;99.10;;;;;;5030723;28;20079;-49
2022/04/13 12:41:15;;;;;;;5.03;2.25;;;17.30;99.10;;;;;;5035394;28;20037;-48
2022/04/13 12:44:00;;;;;;;6.22;2.95;;;17.20;99.00;;;;;;5033691;28;20310;-47
2022/04/13 12:46:30;;;;;;;4.22;2.22;;;17.20;99.10;;;;;;5034235;28;20669;-47